createdAt,value
2022-10-01T00:00:47.174Z,68.16
2022-10-01T00:06:12.145Z,67.82
2022-10-01T00:11:34.349Z,68.58
2022-10-01T00:16:55.262Z,69.07
2022-10-01T00:22:15.829Z,69.13
2022-10-01T00:27:36.743Z,68.92
2022-10-01T00:32:57.318Z,69.15
2022-10-01T00:38:17.866Z,70.02
2022-10-01T00:43:44.074Z,71.08
2022-10-01T00:49:27.717Z,72.31
2022-10-01T00:55:02.501Z,71.77
2022-10-01T01:00:23.324Z,71.77
2022-10-01T01:05:44.199Z,72.28
2022-10-01T01:11:22.646Z,72.68
2022-10-01T01:16:58.663Z,72.76
2022-10-01T01:22:24.101Z,73.27
2022-10-01T01:28:03.951Z,73.94
2022-10-01T01:33:29.065Z,74.50
2022-10-01T01:38:57.842Z,74.27
2022-10-01T01:44:26.344Z,74.77
2022-10-01T01:49:48.743Z,74.67
2022-10-01T01:55:10.059Z,75.13
2022-10-01T02:00:30.589Z,75.52
2022-10-01T02:06:16.852Z,75.73
2022-10-01T02:11:46.764Z,75.77
2022-10-01T02:17:21.193Z,75.66
2022-10-01T02:23:15.842Z,75.82
2022-10-01T02:28:40.869Z,75.91
2022-10-01T02:34:04.514Z,75.79
2022-10-01T02:39:29.469Z,75.99
2022-10-01T02:44:52.737Z,75.75
2022-10-01T02:50:14.841Z,76.02
2022-10-01T02:55:38.854Z,75.83
2022-10-01T03:00:59.622Z,75.81
2022-10-01T03:06:20.143Z,75.50
2022-10-01T03:11:42.456Z,75.70
2022-10-01T03:17:03.190Z,76.05
2022-10-01T03:22:23.843Z,76.55
2022-10-01T03:27:46.080Z,75.85
2022-10-01T03:33:07.695Z,75.97
2022-10-01T03:38:28.658Z,75.81
2022-10-01T03:43:49.180Z,76.42
2022-10-01T03:49:10.698Z,76.50
2022-10-01T03:54:31.329Z,77.25
2022-10-01T03:59:52.131Z,77.84
2022-10-01T04:05:12.949Z,77.78
2022-10-01T04:10:33.577Z,77.45
2022-10-01T04:15:54.405Z,78.02
2022-10-01T04:21:15.545Z,78.60
2022-10-01T04:26:36.202Z,79.36
2022-10-01T04:31:58.140Z,79.83
2022-10-01T04:37:22.255Z,80.47
2022-10-01T04:42:43.614Z,80.79
2022-10-01T04:48:05.194Z,80.80
2022-10-01T04:53:25.942Z,80.18
2022-10-01T04:58:46.749Z,80.75
2022-10-01T05:04:08.455Z,80.91
2022-10-01T05:09:28.750Z,80.65
2022-10-01T05:14:50.823Z,81.32
2022-10-01T05:20:23.259Z,81.74
2022-10-01T05:25:46.932Z,81.33
2022-10-01T05:31:07.726Z,81.10
2022-10-01T05:36:28.700Z,82.32
2022-10-01T05:41:49.111Z,82.01
2022-10-01T05:47:09.640Z,82.49
2022-10-01T05:52:29.870Z,82.30
2022-10-01T05:57:55.874Z,82.92
2022-10-01T06:03:16.647Z,83.00
2022-10-01T06:08:40.507Z,82.87
2022-10-01T06:14:00.958Z,82.53
2022-10-01T06:19:21.668Z,82.53
2022-10-01T06:24:42.234Z,82.89
2022-10-01T06:30:05.360Z,82.99
2022-10-01T06:35:25.715Z,83.39
2022-10-01T06:40:57.444Z,83.30
2022-10-01T06:46:17.920Z,83.42
2022-10-01T06:51:57.038Z,83.15
2022-10-01T06:57:17.275Z,83.27
2022-10-01T07:02:38.222Z,83.84
2022-10-01T07:07:58.550Z,83.64
2022-10-01T07:13:20.827Z,83.55
2022-10-01T07:18:41.496Z,83.41
2022-10-01T07:24:01.955Z,83.46
2022-10-01T07:29:23.853Z,83.83
2022-10-01T07:34:44.676Z,83.70
2022-10-01T07:40:07.619Z,84.50
2022-10-01T07:45:28.221Z,84.55
2022-10-01T07:50:49.549Z,84.07
2022-10-01T07:56:10.090Z,83.61
2022-10-01T08:01:34.227Z,83.80
2022-10-01T08:06:55.170Z,84.17
2022-10-01T08:12:17.779Z,83.57
2022-10-01T08:17:39.014Z,83.44
2022-10-01T08:23:17.581Z,82.96
2022-10-01T08:28:37.961Z,82.74
2022-10-01T08:33:58.670Z,82.52
2022-10-01T08:39:20.419Z,82.35
2022-10-01T08:44:45.810Z,81.68
2022-10-01T08:50:28.096Z,80.87
2022-10-01T08:55:50.890Z,80.25
2022-10-01T09:09:31.270Z,79.98
2022-10-01T09:15:16.753Z,79.81
2022-10-01T09:20:57.689Z,79.40
2022-10-01T09:26:21.351Z,78.91
2022-10-01T09:31:51.007Z,79.00
2022-10-01T09:37:37.707Z,78.95
2022-10-01T09:42:58.585Z,78.43
2022-10-01T09:48:41.070Z,76.91
2022-10-01T09:54:39.301Z,75.75
2022-10-01T10:00:14.862Z,75.32
2022-10-01T10:05:46.555Z,75.64
2022-10-01T10:11:10.783Z,75.31
2022-10-01T10:16:37.177Z,75.31
2022-10-01T10:22:11.525Z,67.20
2022-10-01T10:27:33.669Z,53.93
2022-10-01T10:33:03.572Z,46.85
2022-10-01T10:38:29.680Z,40.47
2022-10-01T10:43:50.544Z,32.45
2022-10-01T10:49:22.191Z,30.55
2022-10-01T10:54:47.415Z,28.57
2022-10-01T11:00:17.797Z,30.03
2022-10-01T11:05:42.840Z,36.92
2022-10-01T11:11:37.415Z,45.15
2022-10-01T11:17:25.700Z,46.13
2022-10-01T11:23:03.964Z,35.15
2022-10-01T11:28:37.261Z,29.31
2022-10-01T11:34:16.628Z,32.84
2022-10-01T11:39:42.382Z,46.82
2022-10-01T11:45:11.164Z,50.36
2022-10-01T11:50:40.208Z,48.73
2022-10-01T11:56:32.331Z,39.69
2022-10-01T12:02:19.324Z,43.34
2022-10-01T12:07:59.130Z,46.20
2022-10-01T12:13:41.165Z,48.62
2022-10-01T12:19:13.217Z,53.06
2022-10-01T12:24:42.541Z,55.46
2022-10-01T12:30:09.255Z,55.56
2022-10-01T12:35:47.367Z,53.50
2022-10-01T12:41:22.252Z,39.83
2022-10-01T12:47:05.859Z,33.97
2022-10-01T12:52:51.296Z,38.71
2022-10-01T12:58:33.143Z,49.38
2022-10-01T13:04:15.000Z,53.03
2022-10-01T13:10:02.795Z,55.53
2022-10-01T13:15:29.584Z,57.69
2022-10-01T13:21:05.743Z,58.88
2022-10-01T13:26:37.272Z,57.21
2022-10-01T13:32:00.063Z,43.06
2022-10-01T13:37:29.679Z,36.23
2022-10-01T13:42:52.489Z,36.06
2022-10-01T13:48:20.328Z,42.25
2022-10-01T13:53:43.533Z,48.08
2022-10-01T13:59:20.301Z,52.72
2022-10-01T14:04:43.874Z,54.99
2022-10-01T14:10:05.392Z,54.61
2022-10-01T14:15:59.511Z,54.96
2022-10-01T14:21:37.028Z,55.29
2022-10-01T14:27:16.204Z,55.99
2022-10-01T14:33:34.142Z,56.29
2022-10-01T14:39:16.099Z,56.44
2022-10-01T14:44:42.014Z,56.18
2022-10-01T14:50:10.984Z,55.52
2022-10-01T14:55:34.678Z,56.86
2022-10-01T15:00:57.389Z,56.10
2022-10-01T15:06:21.648Z,56.46
2022-10-01T15:11:44.696Z,56.06
2022-10-01T15:17:07.461Z,57.17
2022-10-01T15:22:29.950Z,58.05
2022-10-01T15:27:54.078Z,59.40
2022-10-01T15:33:40.612Z,61.56
2022-10-01T15:39:03.246Z,61.73
2022-10-01T15:44:46.594Z,61.62
2022-10-01T15:50:10.995Z,61.98
2022-10-01T15:55:43.933Z,62.75
2022-10-01T16:01:13.779Z,62.52
2022-10-01T16:06:42.659Z,63.00
2022-10-01T16:12:09.061Z,62.90
2022-10-01T16:17:34.887Z,63.28
2022-10-01T16:23:34.872Z,64.00
2022-10-01T16:28:58.761Z,64.26
2022-10-01T16:34:20.632Z,64.24
2022-10-01T16:39:41.477Z,64.67
2022-10-01T16:45:04.855Z,64.95
2022-10-01T16:50:26.228Z,65.23
2022-10-01T16:55:47.276Z,65.63
2022-10-01T17:01:09.432Z,65.70
2022-10-01T17:06:30.322Z,65.68
2022-10-01T17:11:50.692Z,65.52
2022-10-01T17:17:11.465Z,65.35
2022-10-01T17:22:32.014Z,65.76
2022-10-01T17:27:52.990Z,65.84
2022-10-01T17:33:15.520Z,66.20
2022-10-01T17:38:36.658Z,66.14
2022-10-01T17:43:57.757Z,66.13
2022-10-01T17:49:18.611Z,66.30
2022-10-01T17:54:39.174Z,66.13
2022-10-01T17:59:59.804Z,66.24
2022-10-01T18:05:20.626Z,66.39
2022-10-01T18:10:41.100Z,66.62
2022-10-01T18:16:05.273Z,66.70
2022-10-01T18:21:26.530Z,67.01
2022-10-01T18:26:47.225Z,67.07
2022-10-01T18:32:21.089Z,67.42
2022-10-01T18:37:49.827Z,68.17
2022-10-01T18:43:23.172Z,69.16
2022-10-01T18:49:07.578Z,69.54
2022-10-01T18:54:57.261Z,69.47
2022-10-01T19:00:23.191Z,69.31
2022-10-01T19:06:12.741Z,69.91
2022-10-01T19:12:08.585Z,69.84
2022-10-01T19:17:41.424Z,69.37
2022-10-01T19:23:11.504Z,70.30
2022-10-01T19:28:58.391Z,71.47
2022-10-01T19:34:29.766Z,71.93
2022-10-01T19:39:55.140Z,71.70
2022-10-01T19:45:24.154Z,71.72
2022-10-01T19:50:51.463Z,71.90
2022-10-01T19:56:25.922Z,72.09
2022-10-01T20:01:54.838Z,71.68
2022-10-01T20:07:24.120Z,71.42
2022-10-01T20:12:55.415Z,71.56
2022-10-01T20:18:32.906Z,72.10
2022-10-01T20:24:03.046Z,72.12
2022-10-01T20:29:50.666Z,72.59
2022-10-01T20:35:17.131Z,72.28
2022-10-01T20:40:40.403Z,71.92
2022-10-01T20:46:09.700Z,72.71
2022-10-01T20:51:55.423Z,72.77
2022-10-01T20:57:28.989Z,72.86
2022-10-01T21:02:55.635Z,72.39
2022-10-01T21:08:37.247Z,72.61
2022-10-01T21:14:06.036Z,72.70
2022-10-01T21:19:42.428Z,73.44
2022-10-01T21:25:21.759Z,73.61
2022-10-01T21:31:30.808Z,73.29
2022-10-01T21:37:25.185Z,73.00
2022-10-01T21:43:04.835Z,72.92
2022-10-01T21:48:40.000Z,72.27
2022-10-01T21:54:15.770Z,71.84
2022-10-01T21:59:58.104Z,71.63
2022-10-01T22:05:29.751Z,71.56
2022-10-01T22:10:54.551Z,71.45
2022-10-01T22:16:17.079Z,71.43
2022-10-01T22:21:42.206Z,71.14
2022-10-01T22:27:31.907Z,71.15
2022-10-01T22:33:04.533Z,70.83
2022-10-01T22:38:36.231Z,70.62
2022-10-01T22:43:57.126Z,70.42
2022-10-01T22:49:33.205Z,70.74
2022-10-01T22:55:28.483Z,70.84
2022-10-01T23:01:02.101Z,70.63
2022-10-01T23:06:29.530Z,70.44
2022-10-01T23:12:16.772Z,70.23
2022-10-01T23:17:48.755Z,69.88
2022-10-01T23:23:25.648Z,69.81
2022-10-01T23:29:04.828Z,69.90
2022-10-01T23:34:29.937Z,69.95
2022-10-01T23:40:02.943Z,70.53
2022-10-01T23:45:32.764Z,72.12
2022-10-01T23:51:09.370Z,73.21
2022-10-01T23:56:48.766Z,73.23
